Time;durP1;ratioP1;P1;durP2;ratioP2;P2;SDS_P1;SDS_P2;PMS_P1;PMS_P2;Temp;Humidity;BMP_temperature;BMP_pressure;BME280_temperature;BME280_humidity;BME280_pressure;Samples;Min_cycle;Max_cycle;Signal;HPM_P1;HPM_P2
2022/09/14 00:05:26;;;;;;;2.9;5.2;;;;;;;16.2;70.8;97980;;;;
2022/09/14 00:16:26;;;;;;;3.7;6.8;;;;;;;16.1;71.3;97980;;;;
2022/09/14 00:26:26;;;;;;;3.7;6.8;;;;;;;16;72.2;97970;;;;
2022/09/14 00:36:26;;;;;;;3.7;6.8;;;;;;;15.9;72.3;97970;;;;
2022/09/14 00:46:26;;;;;;;3.2;5.3;;;;;;;15.7;72.7;97960;;;;
2022/09/14 00:57:26;;;;;;;3.2;5.3;;;;;;;15.4;73.1;97970;;;;
2022/09/14 01:07:26;;;;;;;3.2;5.3;;;;;;;15.1;73.4;97960;;;;
2022/09/14 01:18:26;;;;;;;3.5;7.2;;;;;;;14.9;74.1;97960;;;;
2022/09/14 01:28:27;;;;;;;3.5;7.2;;;;;;;14.8;74.2;97960;;;;
2022/09/14 01:39:26;;;;;;;3.4;7.1;;;;;;;14.6;74.9;97950;;;;
2022/09/14 01:50:26;;;;;;;3.4;7.1;;;;;;;14.6;75.9;97940;;;;
2022/09/14 02:00:27;;;;;;;3.4;7.1;;;;;;;14.4;76.2;97920;;;;
2022/09/14 02:10:26;;;;;;;3.8;7.2;;;;;;;14.3;76.4;97910;;;;
2022/09/14 02:20:26;;;;;;;3.8;7.2;;;;;;;14.2;76.6;97910;;;;
2022/09/14 02:30:26;;;;;;;3.8;7.2;;;;;;;14.2;76.8;97910;;;;
2022/09/14 02:41:26;;;;;;;3.5;5.5;;;;;;;14.2;77.3;97910;;;;
2022/09/14 02:51:26;;;;;;;3.5;5.5;;;;;;;14.3;77.7;97900;;;;
2022/09/14 03:01:26;;;;;;;3.5;5.5;;;;;;;14.2;77.6;97890;;;;
2022/09/14 03:11:26;;;;;;;3.6;7;;;;;;;14.2;77.9;97880;;;;
2022/09/14 03:21:26;;;;;;;3.6;7;;;;;;;14.1;78.1;97880;;;;
2022/09/14 03:32:26;;;;;;;3.6;7;;;;;;;14.1;77.8;97890;;;;
2022/09/14 03:43:26;;;;;;;3.5;6.9;;;;;;;14;78.2;97890;;;;
2022/09/14 03:54:26;;;;;;;3.5;6.9;;;;;;;13.8;78.3;97880;;;;
2022/09/14 04:04:26;;;;;;;3.5;6.9;;;;;;;13.7;78.6;97880;;;;
2022/09/14 04:15:26;;;;;;;3.3;5.6;;;;;;;13.7;78.8;97880;;;;
2022/09/14 04:25:26;;;;;;;3.3;5.6;;;;;;;13.8;79.4;97880;;;;
2022/09/14 04:36:28;;;;;;;3.3;5.6;;;;;;;14;79.8;97870;;;;
2022/09/14 04:46:26;;;;;;;3.2;5.4;;;;;;;14.3;79.5;97870;;;;
2022/09/14 04:57:26;;;;;;;3.2;5.4;;;;;;;14.6;79;97880;;;;
2022/09/14 05:08:26;;;;;;;3.2;5.4;;;;;;;14.9;78.4;97870;;;;
2022/09/14 05:18:26;;;;;;;3.8;7.2;;;;;;;15.2;78;97870;;;;
2022/09/14 05:29:28;;;;;;;3.8;7.2;;;;;;;15.3;78;97880;;;;
2022/09/14 05:40:26;;;;;;;5.2;8.9;;;;;;;15.4;77.9;97880;;;;
2022/09/14 05:50:26;;;;;;;5.2;8.9;;;;;;;15.6;78.5;97870;;;;
2022/09/14 06:01:26;;;;;;;5.2;8.9;;;;;;;15.9;78.4;97860;;;;
2022/09/14 06:12:26;;;;;;;5.2;8.1;;;;;;;16.6;76.2;97860;;;;
2022/09/14 06:22:26;;;;;;;5.2;8.1;;;;;;;17;75.1;97860;;;;
2022/09/14 06:33:26;;;;;;;5.2;8.1;;;;;;;17.4;74.4;97870;;;;
2022/09/14 06:44:26;;;;;;;4.2;6.9;;;;;;;18;73.1;97880;;;;
2022/09/14 06:54:26;;;;;;;4.2;6.9;;;;;;;18.6;71.6;97890;;;;
2022/09/14 07:04:26;;;;;;;4.2;6.9;;;;;;;18.9;70.3;97890;;;;
2022/09/14 07:14:26;;;;;;;6;8.6;;;;;;;19.2;69.5;97890;;;;
2022/09/14 07:25:26;;;;;;;6;8.6;;;;;;;19.6;68.6;97880;;;;
2022/09/14 07:35:26;;;;;;;6;8.6;;;;;;;19.9;68.4;97880;;;;
2022/09/14 07:46:26;;;;;;;8.7;17.1;;;;;;;20.2;67.8;97870;;;;
2022/09/14 07:56:26;;;;;;;8.7;17.1;;;;;;;20.3;67.3;97880;;;;
2022/09/14 08:07:26;;;;;;;8.7;17.1;;;;;;;20.6;66.8;97880;;;;
2022/09/14 08:18:26;;;;;;;7.7;14.1;;;;;;;20.7;66.2;97870;;;;
2022/09/14 08:28:26;;;;;;;7.7;14.1;;;;;;;21.2;66.7;97870;;;;
2022/09/14 08:39:26;;;;;;;7.4;12.3;;;;;;;21.7;64.8;97870;;;;
2022/09/14 08:49:26;;;;;;;7.4;12.3;;;;;;;22.1;64;97870;;;;
2022/09/14 08:59:26;;;;;;;7.4;12.3;;;;;;;22.4;63.7;97860;;;;
2022/09/14 09:10:26;;;;;;;6.9;10.7;;;;;;;22.7;63.7;97860;;;;
2022/09/14 09:20:26;;;;;;;6.9;10.7;;;;;;;23.1;63.1;97860;;;;
2022/09/14 09:31:26;;;;;;;6.9;10.7;;;;;;;22.9;62;97850;;;;
2022/09/14 09:42:27;;;;;;;6.4;13.8;;;;;;;23.7;61.7;97840;;;;
2022/09/14 09:53:26;;;;;;;6.4;13.8;;;;;;;23.9;59.8;97830;;;;
2022/09/14 10:03:26;;;;;;;6.4;13.8;;;;;;;24.3;60.4;97840;;;;
2022/09/14 10:13:27;;;;;;;5.1;9.6;;;;;;;24.2;59.5;97830;;;;
2022/09/14 10:23:26;;;;;;;5.1;9.6;;;;;;;23.9;59.9;97830;;;;
2022/09/14 10:34:27;;;;;;;5.1;9.6;;;;;;;24;60.3;97820;;;;
2022/09/14 10:44:26;;;;;;;5;8.1;;;;;;;23.8;62.1;97820;;;;
2022/09/14 10:54:26;;;;;;;5;8.1;;;;;;;23.6;57.9;97820;;;;
2022/09/14 11:05:26;;;;;;;5;8.1;;;;;;;23.3;58.9;97820;;;;
2022/09/14 11:16:26;;;;;;;3.6;7.7;;;;;;;22.4;62.6;97820;;;;
2022/09/14 11:27:26;;;;;;;3.6;7.7;;;;;;;21.8;65.9;97820;;;;
2022/09/14 11:37:26;;;;;;;3.6;7.7;;;;;;;21.7;68.2;97820;;;;
2022/09/14 11:48:26;;;;;;;2.4;5.3;;;;;;;21.5;69.9;97810;;;;
2022/09/14 11:58:28;;;;;;;2.4;5.3;;;;;;;21.3;70.2;97810;;;;
2022/09/14 12:09:26;;;;;;;2.4;4.7;;;;;;;21;71.9;97820;;;;
2022/09/14 12:19:26;;;;;;;2.4;4.7;;;;;;;20.6;73.3;97840;;;;
2022/09/14 12:30:26;;;;;;;2.4;4.7;;;;;;;20.5;74.7;97840;;;;
2022/09/14 12:40:27;;;;;;;2.6;5;;;;;;;20.7;74.3;97840;;;;
2022/09/14 12:51:27;;;;;;;2.6;5;;;;;;;20.6;75.1;97840;;;;
2022/09/14 13:01:26;;;;;;;2.6;5;;;;;;;20.5;75.6;97830;;;;
2022/09/14 13:11:27;;;;;;;2.6;6.5;;;;;;;20.2;76.9;97830;;;;
2022/09/14 13:22:28;;;;;;;2.6;6.5;;;;;;;20.4;76.9;97820;;;;
2022/09/14 13:33:26;;;;;;;2.6;6.5;;;;;;;20.1;77.3;97810;;;;
2022/09/14 13:43:26;;;;;;;2.5;4.7;;;;;;;20.1;77.6;97800;;;;
2022/09/14 13:53:26;;;;;;;2.5;4.7;;;;;;;19.8;77.7;97780;;;;
2022/09/14 14:03:26;;;;;;;2.5;4.7;;;;;;;19.6;78.3;97750;;;;
2022/09/14 14:14:27;;;;;;;2.1;3.6;;;;;;;19.6;78.1;97750;;;;
2022/09/14 14:25:27;;;;;;;2.1;3.6;;;;;;;19.5;77.9;97750;;;;
2022/09/14 14:35:26;;;;;;;2.1;3.6;;;;;;;19.4;78.5;97750;;;;
2022/09/14 14:45:26;;;;;;;1.7;3.2;;;;;;;19.3;78.6;97730;;;;
2022/09/14 14:56:27;;;;;;;1.7;3.2;;;;;;;19.4;79.2;97710;;;;
2022/09/14 15:07:26;;;;;;;1.7;3.2;;;;;;;19.4;78.8;97730;;;;
2022/09/14 15:18:26;;;;;;;1.6;3.2;;;;;;;19.1;79.5;97730;;;;
2022/09/14 15:29:26;;;;;;;1.6;3.2;;;;;;;19;78.6;97730;;;;
2022/09/14 15:39:26;;;;;;;1.6;3.3;;;;;;;18.9;79.4;97730;;;;
2022/09/14 15:50:26;;;;;;;1.6;3.3;;;;;;;18.6;81.2;97720;;;;
2022/09/14 16:00:27;;;;;;;1.6;3.3;;;;;;;18.6;81.7;97710;;;;
2022/09/14 16:10:26;;;;;;;2.3;4.7;;;;;;;18.7;81.7;97700;;;;
2022/09/14 16:21:26;;;;;;;2.3;4.7;;;;;;;18.8;80.7;97700;;;;
2022/09/14 16:32:26;;;;;;;2.3;4.7;;;;;;;18.6;81.2;97700;;;;
2022/09/14 16:42:26;;;;;;;2;3.4;;;;;;;18.7;80.8;97700;;;;
2022/09/14 16:53:26;;;;;;;2;3.4;;;;;;;18.5;81.4;97690;;;;
2022/09/14 17:04:26;;;;;;;2;3.4;;;;;;;18.5;82.1;97680;;;;
2022/09/14 17:15:26;;;;;;;3.9;6.9;;;;;;;18.4;82;97690;;;;
2022/09/14 17:25:27;;;;;;;3.9;6.9;;;;;;;18.5;82.3;97690;;;;
2022/09/14 17:36:26;;;;;;;3.9;6.9;;;;;;;18.5;82.2;97690;;;;
2022/09/14 17:47:27;;;;;;;30.1;35.1;;;;;;;18.4;82.9;97690;;;;
2022/09/14 17:58:26;;;;;;;30.1;35.1;;;;;;;18.2;84.2;97680;;;;
2022/09/14 18:08:27;;;;;;;30.1;35.1;;;;;;;18.2;84.5;97680;;;;
2022/09/14 18:19:26;;;;;;;6.8;8.9;;;;;;;18.2;84.5;97650;;;;
2022/09/14 18:30:26;;;;;;;6.8;8.9;;;;;;;18.2;84.3;97650;;;;
2022/09/14 18:40:26;;;;;;;4.5;7.2;;;;;;;18.2;84.3;97670;;;;
2022/09/14 18:51:26;;;;;;;4.5;7.2;;;;;;;18.1;84.7;97660;;;;
2022/09/14 19:01:26;;;;;;;4.5;7.2;;;;;;;18;85.1;97640;;;;
2022/09/14 19:11:26;;;;;;;3.9;7.7;;;;;;;18;85.2;97640;;;;
2022/09/14 19:21:26;;;;;;;3.9;7.7;;;;;;;18.1;84.8;97640;;;;
2022/09/14 19:31:29;;;;;;;3.9;7.7;;;;;;;17.9;85.1;97610;;;;
2022/09/14 19:42:26;;;;;;;4.7;6.6;;;;;;;17.9;84.7;97620;;;;
2022/09/14 19:52:26;;;;;;;4.7;6.6;;;;;;;17.9;85;97620;;;;
2022/09/14 20:02:26;;;;;;;4.7;6.6;;;;;;;17.9;84.9;97620;;;;
2022/09/14 20:12:26;;;;;;;5.3;9.6;;;;;;;17.8;84.8;97620;;;;
2022/09/14 20:22:26;;;;;;;5.3;9.6;;;;;;;17.7;84.8;97620;;;;
2022/09/14 20:33:27;;;;;;;5.3;9.6;;;;;;;17.6;84.9;97590;;;;
2022/09/14 20:44:26;;;;;;;6.3;9.8;;;;;;;17.5;84.9;97600;;;;
2022/09/14 20:54:26;;;;;;;6.3;9.8;;;;;;;17.5;85.2;97600;;;;
2022/09/14 21:04:27;;;;;;;6.3;9.8;;;;;;;17.4;85.5;97580;;;;
2022/09/14 21:15:27;;;;;;;4.5;8.4;;;;;;;17.3;86.7;97580;;;;
2022/09/14 21:25:27;;;;;;;4.5;8.4;;;;;;;17.2;87.6;97560;;;;
2022/09/14 21:35:26;;;;;;;4.5;8.4;;;;;;;17.2;87.5;97540;;;;
2022/09/14 21:46:26;;;;;;;3.5;6.2;;;;;;;17.3;87.2;97530;;;;
2022/09/14 21:56:27;;;;;;;3.5;6.2;;;;;;;17.3;86.9;97520;;;;
2022/09/14 22:06:26;;;;;;;3.5;6.2;;;;;;;17.3;87.2;97520;;;;
2022/09/14 22:17:27;;;;;;;3.5;6.7;;;;;;;17.4;87.2;97510;;;;
2022/09/14 22:28:27;;;;;;;3.5;6.7;;;;;;;17.5;86.6;97490;;;;
2022/09/14 22:38:26;;;;;;;3.5;6.7;;;;;;;17.5;86.2;97500;;;;
2022/09/14 22:49:26;;;;;;;4;6.2;;;;;;;17.6;86;97490;;;;
2022/09/14 22:59:27;;;;;;;4;6.2;;;;;;;17.5;85.8;97480;;;;
2022/09/14 23:10:26;;;;;;;3.9;6.5;;;;;;;17.3;86.2;97470;;;;
2022/09/14 23:20:27;;;;;;;3.9;6.5;;;;;;;17.4;86.3;97450;;;;
2022/09/14 23:30:27;;;;;;;3.9;6.5;;;;;;;17.5;85.9;97440;;;;
2022/09/14 23:41:26;;;;;;;3.9;6.9;;;;;;;17.5;85.9;97440;;;;
2022/09/14 23:51:26;;;;;;;3.9;6.9;;;;;;;17.5;86.2;97440;;;;
